sensor_id;sensor_type;location;lat;lon;timestamp;temperature;humidity
23411;DHT22;11878;51.774;7.220;2023-03-01T00:00:40;-0.60;99.90
23411;DHT22;11878;51.774;7.220;2023-03-01T00:03:43;-0.60;99.90
23411;DHT22;11878;51.774;7.220;2023-03-01T00:21:02;-0.50;99.90
23411;DHT22;11878;51.774;7.220;2023-03-01T00:27:28;-0.50;99.90
23411;DHT22;11878;51.774;7.220;2023-03-01T00:30:29;-0.60;99.90
23411;DHT22;11878;51.774;7.220;2023-03-01T00:33:31;-0.60;99.90
23411;DHT22;11878;51.774;7.220;2023-03-01T00:36:35;-0.50;99.90
23411;DHT22;11878;51.774;7.220;2023-03-01T00:39:37;-0.70;99.90
23411;DHT22;11878;51.774;7.220;2023-03-01T00:42:39;-0.90;99.90
23411;DHT22;11878;51.774;7.220;2023-03-01T00:45:41;-0.80;99.90
23411;DHT22;11878;51.774;7.220;2023-03-01T00:48:43;-0.90;99.90
23411;DHT22;11878;51.774;7.220;2023-03-01T00:51:44;-0.90;99.90
23411;DHT22;11878;51.774;7.220;2023-03-01T00:54:46;-0.80;99.90
23411;DHT22;11878;51.774;7.220;2023-03-01T00:57:48;-0.80;99.90
23411;DHT22;11878;51.774;7.220;2023-03-01T01:00:50;-0.80;99.90
23411;DHT22;11878;51.774;7.220;2023-03-01T01:03:57;-0.90;99.90
23411;DHT22;11878;51.774;7.220;2023-03-01T01:06:59;-0.90;99.90
23411;DHT22;11878;51.774;7.220;2023-03-01T01:10:01;-1.00;99.90
23411;DHT22;11878;51.774;7.220;2023-03-01T01:17:06;-1.00;99.90
23411;DHT22;11878;51.774;7.220;2023-03-01T01:20:09;-1.10;99.90
23411;DHT22;11878;51.774;7.220;2023-03-01T01:23:11;-1.10;99.90
23411;DHT22;11878;51.774;7.220;2023-03-01T01:26:18;-1.20;99.90
23411;DHT22;11878;51.774;7.220;2023-03-01T01:29:20;-1.20;99.90
23411;DHT22;11878;51.774;7.220;2023-03-01T01:35:53;-1.30;99.90
23411;DHT22;11878;51.774;7.220;2023-03-01T01:38:55;-1.40;99.90
23411;DHT22;11878;51.774;7.220;2023-03-01T01:41:57;-1.50;99.90
23411;DHT22;11878;51.774;7.220;2023-03-01T01:45:26;-1.40;99.90
23411;DHT22;11878;51.774;7.220;2023-03-01T01:48:49;-1.50;99.90
23411;DHT22;11878;51.774;7.220;2023-03-01T01:52:00;-1.60;99.90
23411;DHT22;11878;51.774;7.220;2023-03-01T01:55:07;-1.50;99.90
23411;DHT22;11878;51.774;7.220;2023-03-01T01:58:13;-1.50;99.90
23411;DHT22;11878;51.774;7.220;2023-03-01T02:01:16;-1.60;99.90
23411;DHT22;11878;51.774;7.220;2023-03-01T02:04:18;-1.60;99.90
23411;DHT22;11878;51.774;7.220;2023-03-01T02:07:22;-1.60;99.90
23411;DHT22;11878;51.774;7.220;2023-03-01T02:10:25;-1.70;99.90
23411;DHT22;11878;51.774;7.220;2023-03-01T02:13:28;-1.60;99.90
23411;DHT22;11878;51.774;7.220;2023-03-01T02:16:31;-1.70;99.90
23411;DHT22;11878;51.774;7.220;2023-03-01T02:22:49;-1.90;99.90
23411;DHT22;11878;51.774;7.220;2023-03-01T02:32:35;-1.90;99.90
23411;DHT22;11878;51.774;7.220;2023-03-01T02:35:38;-2.00;99.90
23411;DHT22;11878;51.774;7.220;2023-03-01T02:38:41;-2.00;99.90
23411;DHT22;11878;51.774;7.220;2023-03-01T02:41:47;-1.90;99.90
23411;DHT22;11878;51.774;7.220;2023-03-01T02:44:50;-1.90;99.90
23411;DHT22;11878;51.774;7.220;2023-03-01T02:47:56;-2.00;99.90
23411;DHT22;11878;51.774;7.220;2023-03-01T02:51:06;-1.90;99.90
23411;DHT22;11878;51.774;7.220;2023-03-01T02:57:38;-2.00;99.90
23411;DHT22;11878;51.774;7.220;2023-03-01T03:00:42;-1.90;99.90
23411;DHT22;11878;51.774;7.220;2023-03-01T03:03:49;-2.00;99.90
23411;DHT22;11878;51.774;7.220;2023-03-01T03:06:51;-2.00;99.90
23411;DHT22;11878;51.774;7.220;2023-03-01T03:09:53;-2.00;99.90
23411;DHT22;11878;51.774;7.220;2023-03-01T03:23:21;-2.00;99.90
23411;DHT22;11878;51.774;7.220;2023-03-01T03:30:01;-2.10;99.90
23411;DHT22;11878;51.774;7.220;2023-03-01T03:33:02;-2.20;99.90
23411;DHT22;11878;51.774;7.220;2023-03-01T03:36:05;-2.20;99.90
23411;DHT22;11878;51.774;7.220;2023-03-01T03:39:07;-2.30;99.90
23411;DHT22;11878;51.774;7.220;2023-03-01T03:49:24;-2.30;99.90
23411;DHT22;11878;51.774;7.220;2023-03-01T03:52:25;-2.30;99.90
23411;DHT22;11878;51.774;7.220;2023-03-01T03:59:05;-2.60;99.90
23411;DHT22;11878;51.774;7.220;2023-03-01T04:02:07;-2.70;99.90
23411;DHT22;11878;51.774;7.220;2023-03-01T04:05:12;-2.60;99.90
23411;DHT22;11878;51.774;7.220;2023-03-01T04:08:14;-2.60;99.90
23411;DHT22;11878;51.774;7.220;2023-03-01T04:11:15;-2.70;99.90
23411;DHT22;11878;51.774;7.220;2023-03-01T04:46:09;-2.70;99.90
23411;DHT22;11878;51.774;7.220;2023-03-01T05:14:32;-2.90;99.90
23411;DHT22;11878;51.774;7.220;2023-03-01T05:49:12;-3.10;99.90
23411;DHT22;11878;51.774;7.220;2023-03-01T05:59:33;-3.20;99.90
23411;DHT22;11878;51.774;7.220;2023-03-01T06:48:10;-2.50;99.90
23411;DHT22;11878;51.774;7.220;2023-03-01T06:51:12;-2.50;99.90
23411;DHT22;11878;51.774;7.220;2023-03-01T06:54:14;-2.40;99.90
23411;DHT22;11878;51.774;7.220;2023-03-01T06:57:16;-2.30;99.90
23411;DHT22;11878;51.774;7.220;2023-03-01T07:00:18;-2.40;99.90
23411;DHT22;11878;51.774;7.220;2023-03-01T07:03:20;-2.40;99.90
23411;DHT22;11878;51.774;7.220;2023-03-01T07:06:23;-2.20;99.90
23411;DHT22;11878;51.774;7.220;2023-03-01T07:09:25;-2.20;99.90
23411;DHT22;11878;51.774;7.220;2023-03-01T07:12:26;-2.00;99.90
23411;DHT22;11878;51.774;7.220;2023-03-01T07:15:28;-1.90;99.90
23411;DHT22;11878;51.774;7.220;2023-03-01T07:18:30;-1.80;99.90
23411;DHT22;11878;51.774;7.220;2023-03-01T07:21:32;-1.70;99.90
23411;DHT22;11878;51.774;7.220;2023-03-01T07:24:34;-1.60;99.90
23411;DHT22;11878;51.774;7.220;2023-03-01T07:27:36;-1.40;99.90
23411;DHT22;11878;51.774;7.220;2023-03-01T07:30:37;-1.40;99.90
23411;DHT22;11878;51.774;7.220;2023-03-01T07:33:39;-1.30;99.90
23411;DHT22;11878;51.774;7.220;2023-03-01T07:36:41;-1.20;99.90
23411;DHT22;11878;51.774;7.220;2023-03-01T07:39:44;-1.10;99.90
23411;DHT22;11878;51.774;7.220;2023-03-01T07:42:46;-1.00;99.90
23411;DHT22;11878;51.774;7.220;2023-03-01T07:45:48;-0.90;99.90
23411;DHT22;11878;51.774;7.220;2023-03-01T07:48:49;-0.80;99.90
23411;DHT22;11878;51.774;7.220;2023-03-01T07:51:51;-0.80;99.90
23411;DHT22;11878;51.774;7.220;2023-03-01T07:54:53;-0.70;99.90
23411;DHT22;11878;51.774;7.220;2023-03-01T07:57:55;-0.60;99.90
23411;DHT22;11878;51.774;7.220;2023-03-01T08:01:04;-0.50;99.90
23411;DHT22;11878;51.774;7.220;2023-03-01T08:04:07;-0.40;99.90
23411;DHT22;11878;51.774;7.220;2023-03-01T08:07:09;-0.40;99.90
23411;DHT22;11878;51.774;7.220;2023-03-01T08:10:11;-0.30;99.90
23411;DHT22;11878;51.774;7.220;2023-03-01T08:13:12;-0.20;99.90
23411;DHT22;11878;51.774;7.220;2023-03-01T08:16:15;-0.10;99.90
23411;DHT22;11878;51.774;7.220;2023-03-01T08:19:17;0.00;99.90
23411;DHT22;11878;51.774;7.220;2023-03-01T08:22:19;0.10;99.90
23411;DHT22;11878;51.774;7.220;2023-03-01T08:25:21;0.10;99.90
23411;DHT22;11878;51.774;7.220;2023-03-01T08:28:22;0.20;99.90
23411;DHT22;11878;51.774;7.220;2023-03-01T08:34:27;0.50;99.90
23411;DHT22;11878;51.774;7.220;2023-03-01T08:37:29;0.60;99.90
23411;DHT22;11878;51.774;7.220;2023-03-01T08:40:32;0.70;99.90
23411;DHT22;11878;51.774;7.220;2023-03-01T08:43:34;0.80;99.90
23411;DHT22;11878;51.774;7.220;2023-03-01T08:46:38;1.00;99.90
23411;DHT22;11878;51.774;7.220;2023-03-01T08:49:40;1.20;99.90
23411;DHT22;11878;51.774;7.220;2023-03-01T08:52:42;1.40;99.90
23411;DHT22;11878;51.774;7.220;2023-03-01T08:55:43;1.60;99.90
23411;DHT22;11878;51.774;7.220;2023-03-01T08:58:46;1.70;99.90
23411;DHT22;11878;51.774;7.220;2023-03-01T09:01:48;2.00;99.90
23411;DHT22;11878;51.774;7.220;2023-03-01T09:04:50;2.20;99.90
23411;DHT22;11878;51.774;7.220;2023-03-01T09:07:52;2.30;99.90
23411;DHT22;11878;51.774;7.220;2023-03-01T09:10:53;2.50;99.90
23411;DHT22;11878;51.774;7.220;2023-03-01T09:13:56;2.80;99.90
23411;DHT22;11878;51.774;7.220;2023-03-01T09:16:58;2.90;99.90
23411;DHT22;11878;51.774;7.220;2023-03-01T09:19:59;3.10;99.90
23411;DHT22;11878;51.774;7.220;2023-03-01T09:23:01;3.30;99.90
23411;DHT22;11878;51.774;7.220;2023-03-01T09:26:03;3.50;99.90
23411;DHT22;11878;51.774;7.220;2023-03-01T09:29:05;3.60;99.90
23411;DHT22;11878;51.774;7.220;2023-03-01T09:32:07;3.80;99.90
23411;DHT22;11878;51.774;7.220;2023-03-01T09:35:10;3.90;99.90
23411;DHT22;11878;51.774;7.220;2023-03-01T09:38:13;4.20;99.90
23411;DHT22;11878;51.774;7.220;2023-03-01T09:41:36;4.40;99.90
23411;DHT22;11878;51.774;7.220;2023-03-01T09:44:47;4.60;99.90
23411;DHT22;11878;51.774;7.220;2023-03-01T09:47:49;4.70;99.90
23411;DHT22;11878;51.774;7.220;2023-03-01T09:50:51;5.00;99.90
23411;DHT22;11878;51.774;7.220;2023-03-01T09:53:53;5.00;99.90
23411;DHT22;11878;51.774;7.220;2023-03-01T09:57:16;5.30;99.90
23411;DHT22;11878;51.774;7.220;2023-03-01T10:03:39;6.00;99.90
23411;DHT22;11878;51.774;7.220;2023-03-01T10:06:50;6.10;96.70
23411;DHT22;11878;51.774;7.220;2023-03-01T10:09:55;6.30;96.90
23411;DHT22;11878;51.774;7.220;2023-03-01T10:13:04;6.60;94.70
23411;DHT22;11878;51.774;7.220;2023-03-01T10:16:23;6.60;92.90
23411;DHT22;11878;51.774;7.220;2023-03-01T10:19:32;6.00;92.70
23411;DHT22;11878;51.774;7.220;2023-03-01T10:22:36;6.50;92.10
23411;DHT22;11878;51.774;7.220;2023-03-01T10:32:06;7.40;90.20
23411;DHT22;11878;51.774;7.220;2023-03-01T10:35:16;7.20;91.00
23411;DHT22;11878;51.774;7.220;2023-03-01T10:38:19;7.30;90.30
23411;DHT22;11878;51.774;7.220;2023-03-01T10:41:26;7.30;88.90
23411;DHT22;11878;51.774;7.220;2023-03-01T10:44:40;7.60;86.40
23411;DHT22;11878;51.774;7.220;2023-03-01T10:47:42;7.30;88.00
23411;DHT22;11878;51.774;7.220;2023-03-01T10:50:46;7.20;88.40
23411;DHT22;11878;51.774;7.220;2023-03-01T10:53:49;6.80;82.80
23411;DHT22;11878;51.774;7.220;2023-03-01T10:56:55;6.30;85.30
23411;DHT22;11878;51.774;7.220;2023-03-01T11:00:14;6.50;88.30
23411;DHT22;11878;51.774;7.220;2023-03-01T11:03:26;6.40;90.00
23411;DHT22;11878;51.774;7.220;2023-03-01T11:06:28;7.10;84.00
23411;DHT22;11878;51.774;7.220;2023-03-01T11:09:32;6.60;84.80
23411;DHT22;11878;51.774;7.220;2023-03-01T11:12:41;6.40;84.80
23411;DHT22;11878;51.774;7.220;2023-03-01T11:15:43;6.80;83.40
23411;DHT22;11878;51.774;7.220;2023-03-01T11:18:56;6.90;86.00
23411;DHT22;11878;51.774;7.220;2023-03-01T11:22:07;7.40;84.20
23411;DHT22;11878;51.774;7.220;2023-03-01T11:25:12;7.80;82.90
23411;DHT22;11878;51.774;7.220;2023-03-01T11:28:17;7.70;80.10
23411;DHT22;11878;51.774;7.220;2023-03-01T11:31:21;6.70;79.80
23411;DHT22;11878;51.774;7.220;2023-03-01T11:34:42;7.00;79.70
23411;DHT22;11878;51.774;7.220;2023-03-01T11:38:25;6.80;87.20
23411;DHT22;11878;51.774;7.220;2023-03-01T11:41:31;7.10;85.50
23411;DHT22;11878;51.774;7.220;2023-03-01T11:44:36;7.50;82.70
23411;DHT22;11878;51.774;7.220;2023-03-01T11:47:49;7.70;82.90
23411;DHT22;11878;51.774;7.220;2023-03-01T11:50:54;7.70;80.10
23411;DHT22;11878;51.774;7.220;2023-03-01T11:54:09;8.00;83.90
23411;DHT22;11878;51.774;7.220;2023-03-01T11:57:35;8.30;82.00
23411;DHT22;11878;51.774;7.220;2023-03-01T12:01:03;8.00;81.10
23411;DHT22;11878;51.774;7.220;2023-03-01T12:04:54;7.50;79.60
23411;DHT22;11878;51.774;7.220;2023-03-01T12:15:31;8.30;79.30
23411;DHT22;11878;51.774;7.220;2023-03-01T12:18:41;9.30;76.10
23411;DHT22;11878;51.774;7.220;2023-03-01T12:25:12;8.90;70.90
23411;DHT22;11878;51.774;7.220;2023-03-01T12:28:29;8.20;75.40
23411;DHT22;11878;51.774;7.220;2023-03-01T12:31:41;8.10;76.10
23411;DHT22;11878;51.774;7.220;2023-03-01T12:35:00;9.10;79.20
23411;DHT22;11878;51.774;7.220;2023-03-01T12:39:04;9.80;68.40
23411;DHT22;11878;51.774;7.220;2023-03-01T12:45:16;10.10;66.90
23411;DHT22;11878;51.774;7.220;2023-03-01T12:48:43;10.60;67.70
23411;DHT22;11878;51.774;7.220;2023-03-01T12:51:57;9.90;66.20
23411;DHT22;11878;51.774;7.220;2023-03-01T12:55:02;10.60;64.90
23411;DHT22;11878;51.774;7.220;2023-03-01T12:58:32;10.60;63.70
23411;DHT22;11878;51.774;7.220;2023-03-01T13:05:37;9.50;65.70
23411;DHT22;11878;51.774;7.220;2023-03-01T13:15:50;8.90;65.80
23411;DHT22;11878;51.774;7.220;2023-03-01T13:19:24;9.20;63.30
23411;DHT22;11878;51.774;7.220;2023-03-01T13:22:29;9.50;64.20
23411;DHT22;11878;51.774;7.220;2023-03-01T13:25:32;10.20;62.80
23411;DHT22;11878;51.774;7.220;2023-03-01T13:31:56;10.70;58.40
23411;DHT22;11878;51.774;7.220;2023-03-01T13:35:01;10.90;59.60
23411;DHT22;11878;51.774;7.220;2023-03-01T13:41:48;11.60;54.80
23411;DHT22;11878;51.774;7.220;2023-03-01T13:44:50;12.10;55.10
23411;DHT22;11878;51.774;7.220;2023-03-01T13:47:55;12.30;55.10
23411;DHT22;11878;51.774;7.220;2023-03-01T13:51:03;13.30;50.60
23411;DHT22;11878;51.774;7.220;2023-03-01T13:54:05;12.50;52.40
23411;DHT22;11878;51.774;7.220;2023-03-01T13:57:21;13.00;49.60
23411;DHT22;11878;51.774;7.220;2023-03-01T14:00:35;12.80;49.00
23411;DHT22;11878;51.774;7.220;2023-03-01T14:03:41;13.80;47.90
23411;DHT22;11878;51.774;7.220;2023-03-01T14:06:43;14.90;47.30
23411;DHT22;11878;51.774;7.220;2023-03-01T14:09:47;15.50;44.30
23411;DHT22;11878;51.774;7.220;2023-03-01T14:19:47;16.80;39.20
23411;DHT22;11878;51.774;7.220;2023-03-01T14:22:58;16.10;39.70
23411;DHT22;11878;51.774;7.220;2023-03-01T14:26:01;16.50;38.10
23411;DHT22;11878;51.774;7.220;2023-03-01T14:29:03;16.50;40.00
23411;DHT22;11878;51.774;7.220;2023-03-01T14:35:28;17.50;38.70
23411;DHT22;11878;51.774;7.220;2023-03-01T14:41:39;17.50;35.50
23411;DHT22;11878;51.774;7.220;2023-03-01T14:44:43;17.70;36.40
23411;DHT22;11878;51.774;7.220;2023-03-01T14:47:46;17.80;33.90
23411;DHT22;11878;51.774;7.220;2023-03-01T14:50:49;17.90;35.00
23411;DHT22;11878;51.774;7.220;2023-03-01T14:53:52;17.90;34.10
23411;DHT22;11878;51.774;7.220;2023-03-01T14:56:59;14.40;35.80
23411;DHT22;11878;51.774;7.220;2023-03-01T15:00:03;11.90;40.80
23411;DHT22;11878;51.774;7.220;2023-03-01T15:03:12;11.30;43.10
23411;DHT22;11878;51.774;7.220;2023-03-01T15:06:18;11.00;45.80
23411;DHT22;11878;51.774;7.220;2023-03-01T15:09:21;11.50;46.60
23411;DHT22;11878;51.774;7.220;2023-03-01T15:12:36;12.70;46.20
23411;DHT22;11878;51.774;7.220;2023-03-01T15:15:41;15.40;39.30
23411;DHT22;11878;51.774;7.220;2023-03-01T15:18:51;17.00;35.10
23411;DHT22;11878;51.774;7.220;2023-03-01T15:21:54;17.20;33.00
23411;DHT22;11878;51.774;7.220;2023-03-01T15:24:57;17.50;32.00
23411;DHT22;11878;51.774;7.220;2023-03-01T15:28:01;17.40;32.60
23411;DHT22;11878;51.774;7.220;2023-03-01T15:34:23;17.00;32.00
23411;DHT22;11878;51.774;7.220;2023-03-01T15:37:47;16.50;32.20
23411;DHT22;11878;51.774;7.220;2023-03-01T15:40:50;15.10;33.40
23411;DHT22;11878;51.774;7.220;2023-03-01T15:43:52;14.00;36.90
23411;DHT22;11878;51.774;7.220;2023-03-01T15:46:58;12.20;40.20
23411;DHT22;11878;51.774;7.220;2023-03-01T15:50:00;11.60;41.80
23411;DHT22;11878;51.774;7.220;2023-03-01T15:53:08;10.80;44.50
23411;DHT22;11878;51.774;7.220;2023-03-01T15:56:12;10.00;46.80
23411;DHT22;11878;51.774;7.220;2023-03-01T15:59:16;10.30;44.30
23411;DHT22;11878;51.774;7.220;2023-03-01T16:02:18;9.80;45.50
23411;DHT22;11878;51.774;7.220;2023-03-01T16:05:33;9.70;47.10
23411;DHT22;11878;51.774;7.220;2023-03-01T16:08:37;9.30;47.00
23411;DHT22;11878;51.774;7.220;2023-03-01T16:11:39;9.20;48.70
23411;DHT22;11878;51.774;7.220;2023-03-01T16:14:42;8.90;49.80
23411;DHT22;11878;51.774;7.220;2023-03-01T16:17:44;8.90;50.80
23411;DHT22;11878;51.774;7.220;2023-03-01T16:20:51;8.90;49.70
23411;DHT22;11878;51.774;7.220;2023-03-01T16:23:55;8.60;49.30
23411;DHT22;11878;51.774;7.220;2023-03-01T16:26:57;8.30;51.40
23411;DHT22;11878;51.774;7.220;2023-03-01T16:29:59;8.10;52.30
23411;DHT22;11878;51.774;7.220;2023-03-01T16:33:01;8.20;53.60
23411;DHT22;11878;51.774;7.220;2023-03-01T16:36:11;8.20;52.30
23411;DHT22;11878;51.774;7.220;2023-03-01T16:39:13;8.10;53.60
23411;DHT22;11878;51.774;7.220;2023-03-01T16:42:16;8.00;53.10
23411;DHT22;11878;51.774;7.220;2023-03-01T16:45:18;7.60;55.30
23411;DHT22;11878;51.774;7.220;2023-03-01T16:48:29;7.50;54.70
23411;DHT22;11878;51.774;7.220;2023-03-01T16:51:31;7.40;56.10
23411;DHT22;11878;51.774;7.220;2023-03-01T16:54:36;7.30;54.90
23411;DHT22;11878;51.774;7.220;2023-03-01T16:57:38;7.30;56.30
23411;DHT22;11878;51.774;7.220;2023-03-01T17:00:40;7.30;57.30
23411;DHT22;11878;51.774;7.220;2023-03-01T17:03:43;7.20;57.50
23411;DHT22;11878;51.774;7.220;2023-03-01T17:06:45;7.50;59.40
23411;DHT22;11878;51.774;7.220;2023-03-01T17:09:48;7.10;60.70
23411;DHT22;11878;51.774;7.220;2023-03-01T17:12:50;7.00;59.20
23411;DHT22;11878;51.774;7.220;2023-03-01T17:15:52;6.90;60.30
23411;DHT22;11878;51.774;7.220;2023-03-01T17:18:53;6.80;60.20
23411;DHT22;11878;51.774;7.220;2023-03-01T17:21:55;6.50;60.60
23411;DHT22;11878;51.774;7.220;2023-03-01T17:24:57;6.40;61.10
23411;DHT22;11878;51.774;7.220;2023-03-01T17:27:59;6.30;63.20
23411;DHT22;11878;51.774;7.220;2023-03-01T17:31:02;6.30;62.10
23411;DHT22;11878;51.774;7.220;2023-03-01T17:34:04;6.30;64.80
23411;DHT22;11878;51.774;7.220;2023-03-01T17:37:06;6.20;67.40
23411;DHT22;11878;51.774;7.220;2023-03-01T17:40:08;6.00;69.50
23411;DHT22;11878;51.774;7.220;2023-03-01T17:43:10;5.90;69.80
23411;DHT22;11878;51.774;7.220;2023-03-01T17:46:12;5.80;67.20
23411;DHT22;11878;51.774;7.220;2023-03-01T17:49:14;5.60;72.80
23411;DHT22;11878;51.774;7.220;2023-03-01T17:52:17;5.30;76.50
23411;DHT22;11878;51.774;7.220;2023-03-01T17:55:24;5.30;72.40
23411;DHT22;11878;51.774;7.220;2023-03-01T17:58:25;5.30;72.60
23411;DHT22;11878;51.774;7.220;2023-03-01T18:01:27;5.30;72.00
23411;DHT22;11878;51.774;7.220;2023-03-01T18:04:29;5.20;71.20
23411;DHT22;11878;51.774;7.220;2023-03-01T18:07:31;5.30;70.90
23411;DHT22;11878;51.774;7.220;2023-03-01T18:10:33;5.30;72.20
23411;DHT22;11878;51.774;7.220;2023-03-01T18:13:37;5.20;72.50
23411;DHT22;11878;51.774;7.220;2023-03-01T18:16:40;5.10;75.00
23411;DHT22;11878;51.774;7.220;2023-03-01T18:19:42;5.00;75.30
23411;DHT22;11878;51.774;7.220;2023-03-01T18:22:44;5.00;78.50
23411;DHT22;11878;51.774;7.220;2023-03-01T18:25:46;5.40;75.20
23411;DHT22;11878;51.774;7.220;2023-03-01T18:28:49;4.90;75.70
23411;DHT22;11878;51.774;7.220;2023-03-01T18:31:52;4.90;76.70
23411;DHT22;11878;51.774;7.220;2023-03-01T18:34:53;4.80;76.30
23411;DHT22;11878;51.774;7.220;2023-03-01T18:37:55;4.80;80.00
23411;DHT22;11878;51.774;7.220;2023-03-01T18:40:57;4.60;80.80
23411;DHT22;11878;51.774;7.220;2023-03-01T18:44:00;4.60;78.80
23411;DHT22;11878;51.774;7.220;2023-03-01T18:47:02;4.50;83.40
23411;DHT22;11878;51.774;7.220;2023-03-01T18:50:05;4.50;84.10
23411;DHT22;11878;51.774;7.220;2023-03-01T18:53:07;4.40;84.70
23411;DHT22;11878;51.774;7.220;2023-03-01T18:56:10;4.40;84.80
23411;DHT22;11878;51.774;7.220;2023-03-01T18:59:11;4.30;86.80
23411;DHT22;11878;51.774;7.220;2023-03-01T19:02:13;4.20;87.40
23411;DHT22;11878;51.774;7.220;2023-03-01T19:05:16;4.20;86.90
23411;DHT22;11878;51.774;7.220;2023-03-01T19:08:18;4.20;87.40
23411;DHT22;11878;51.774;7.220;2023-03-01T19:11:20;4.10;86.80
23411;DHT22;11878;51.774;7.220;2023-03-01T19:14:22;4.10;89.00
23411;DHT22;11878;51.774;7.220;2023-03-01T19:17:24;4.10;91.80
23411;DHT22;11878;51.774;7.220;2023-03-01T19:20:31;3.90;91.90
23411;DHT22;11878;51.774;7.220;2023-03-01T19:23:33;3.80;93.70
23411;DHT22;11878;51.774;7.220;2023-03-01T19:26:38;3.80;92.20
23411;DHT22;11878;51.774;7.220;2023-03-01T19:29:42;3.70;93.30
23411;DHT22;11878;51.774;7.220;2023-03-01T19:32:44;3.70;93.40
23411;DHT22;11878;51.774;7.220;2023-03-01T19:35:45;3.70;92.90
23411;DHT22;11878;51.774;7.220;2023-03-01T19:38:48;3.60;92.90
23411;DHT22;11878;51.774;7.220;2023-03-01T19:41:49;3.60;93.00
23411;DHT22;11878;51.774;7.220;2023-03-01T19:44:51;3.50;93.50
23411;DHT22;11878;51.774;7.220;2023-03-01T19:47:53;3.60;91.70
23411;DHT22;11878;51.774;7.220;2023-03-01T19:50:55;3.60;94.50
23411;DHT22;11878;51.774;7.220;2023-03-01T19:53:56;3.50;93.80
23411;DHT22;11878;51.774;7.220;2023-03-01T19:56:59;3.40;93.40
23411;DHT22;11878;51.774;7.220;2023-03-01T20:00:01;3.20;93.90
23411;DHT22;11878;51.774;7.220;2023-03-01T20:03:13;3.30;94.50
23411;DHT22;11878;51.774;7.220;2023-03-01T20:06:17;3.20;94.20
23411;DHT22;11878;51.774;7.220;2023-03-01T20:09:20;3.10;95.60
23411;DHT22;11878;51.774;7.220;2023-03-01T20:12:23;3.20;95.90
23411;DHT22;11878;51.774;7.220;2023-03-01T20:15:25;3.10;95.20
23411;DHT22;11878;51.774;7.220;2023-03-01T20:18:27;3.10;95.20
23411;DHT22;11878;51.774;7.220;2023-03-01T20:21:29;3.20;94.70
23411;DHT22;11878;51.774;7.220;2023-03-01T20:24:30;2.70;94.90
23411;DHT22;11878;51.774;7.220;2023-03-01T20:27:32;3.20;96.20
23411;DHT22;11878;51.774;7.220;2023-03-01T20:30:36;3.10;95.30
23411;DHT22;11878;51.774;7.220;2023-03-01T20:33:38;3.20;94.90
23411;DHT22;11878;51.774;7.220;2023-03-01T20:36:40;3.20;96.00
23411;DHT22;11878;51.774;7.220;2023-03-01T20:39:44;3.20;95.50
23411;DHT22;11878;51.774;7.220;2023-03-01T20:42:46;3.10;95.60
23411;DHT22;11878;51.774;7.220;2023-03-01T20:45:48;3.00;96.50
23411;DHT22;11878;51.774;7.220;2023-03-01T20:48:50;2.90;96.10
23411;DHT22;11878;51.774;7.220;2023-03-01T20:51:52;3.00;98.00
23411;DHT22;11878;51.774;7.220;2023-03-01T20:54:54;2.70;99.40
23411;DHT22;11878;51.774;7.220;2023-03-01T20:57:55;2.60;99.00
23411;DHT22;11878;51.774;7.220;2023-03-01T21:00:58;2.60;98.90
23411;DHT22;11878;51.774;7.220;2023-03-01T21:04:00;2.60;97.60
23411;DHT22;11878;51.774;7.220;2023-03-01T21:07:02;2.40;99.50
23411;DHT22;11878;51.774;7.220;2023-03-01T21:10:04;2.50;98.90
23411;DHT22;11878;51.774;7.220;2023-03-01T21:13:06;2.50;99.80
23411;DHT22;11878;51.774;7.220;2023-03-01T21:16:11;2.40;98.10
23411;DHT22;11878;51.774;7.220;2023-03-01T21:19:16;2.30;99.90
23411;DHT22;11878;51.774;7.220;2023-03-01T21:22:17;2.30;99.90
23411;DHT22;11878;51.774;7.220;2023-03-01T21:25:19;2.20;99.60
23411;DHT22;11878;51.774;7.220;2023-03-01T21:28:21;2.90;99.90
23411;DHT22;11878;51.774;7.220;2023-03-01T21:31:26;2.20;98.60
23411;DHT22;11878;51.774;7.220;2023-03-01T21:34:28;2.20;98.90
23411;DHT22;11878;51.774;7.220;2023-03-01T21:37:30;2.00;99.90
23411;DHT22;11878;51.774;7.220;2023-03-01T21:40:32;2.20;99.90
23411;DHT22;11878;51.774;7.220;2023-03-01T21:43:34;2.30;99.90
23411;DHT22;11878;51.774;7.220;2023-03-01T21:46:38;2.30;99.70
23411;DHT22;11878;51.774;7.220;2023-03-01T21:49:40;2.30;99.20
23411;DHT22;11878;51.774;7.220;2023-03-01T21:52:41;2.20;99.90
23411;DHT22;11878;51.774;7.220;2023-03-01T21:55:47;2.30;99.30
23411;DHT22;11878;51.774;7.220;2023-03-01T21:58:49;2.30;99.40
23411;DHT22;11878;51.774;7.220;2023-03-01T22:01:51;2.30;99.70
23411;DHT22;11878;51.774;7.220;2023-03-01T22:04:53;2.30;99.20
23411;DHT22;11878;51.774;7.220;2023-03-01T22:07:58;2.20;99.70
23411;DHT22;11878;51.774;7.220;2023-03-01T22:11:01;2.20;99.90
23411;DHT22;11878;51.774;7.220;2023-03-01T22:14:03;2.10;99.90
23411;DHT22;11878;51.774;7.220;2023-03-01T22:17:05;2.20;99.90
23411;DHT22;11878;51.774;7.220;2023-03-01T22:20:08;2.10;99.90
23411;DHT22;11878;51.774;7.220;2023-03-01T22:23:09;2.20;99.90
23411;DHT22;11878;51.774;7.220;2023-03-01T22:26:32;2.20;99.90
23411;DHT22;11878;51.774;7.220;2023-03-01T22:29:34;2.20;99.70
23411;DHT22;11878;51.774;7.220;2023-03-01T22:32:36;2.20;99.90
23411;DHT22;11878;51.774;7.220;2023-03-01T22:35:41;2.10;99.70
23411;DHT22;11878;51.774;7.220;2023-03-01T22:38:43;2.10;99.90
23411;DHT22;11878;51.774;7.220;2023-03-01T22:41:46;2.10;99.90
23411;DHT22;11878;51.774;7.220;2023-03-01T22:44:48;2.10;99.90
23411;DHT22;11878;51.774;7.220;2023-03-01T22:47:50;2.20;99.60
23411;DHT22;11878;51.774;7.220;2023-03-01T22:50:52;2.10;99.30
23411;DHT22;11878;51.774;7.220;2023-03-01T22:53:54;2.00;99.10
23411;DHT22;11878;51.774;7.220;2023-03-01T22:56:56;1.90;99.90
23411;DHT22;11878;51.774;7.220;2023-03-01T22:59:57;1.90;99.90
23411;DHT22;11878;51.774;7.220;2023-03-01T23:02:59;1.80;99.90
23411;DHT22;11878;51.774;7.220;2023-03-01T23:06:01;1.70;99.90
23411;DHT22;11878;51.774;7.220;2023-03-01T23:09:03;1.70;99.90
23411;DHT22;11878;51.774;7.220;2023-03-01T23:12:07;1.70;99.90
23411;DHT22;11878;51.774;7.220;2023-03-01T23:15:11;1.80;99.90
23411;DHT22;11878;51.774;7.220;2023-03-01T23:18:13;1.90;99.90
23411;DHT22;11878;51.774;7.220;2023-03-01T23:21:17;1.80;99.90
23411;DHT22;11878;51.774;7.220;2023-03-01T23:24:22;1.80;99.90
23411;DHT22;11878;51.774;7.220;2023-03-01T23:27:24;1.90;99.90
23411;DHT22;11878;51.774;7.220;2023-03-01T23:30:25;1.80;99.90
23411;DHT22;11878;51.774;7.220;2023-03-01T23:33:28;1.90;99.90
23411;DHT22;11878;51.774;7.220;2023-03-01T23:36:32;1.90;99.90
23411;DHT22;11878;51.774;7.220;2023-03-01T23:39:34;1.80;99.90
23411;DHT22;11878;51.774;7.220;2023-03-01T23:42:36;1.70;99.90
23411;DHT22;11878;51.774;7.220;2023-03-01T23:45:38;1.60;99.90
23411;DHT22;11878;51.774;7.220;2023-03-01T23:48:44;1.60;99.90
23411;DHT22;11878;51.774;7.220;2023-03-01T23:51:46;1.60;99.90
23411;DHT22;11878;51.774;7.220;2023-03-01T23:54:48;1.50;99.90
23411;DHT22;11878;51.774;7.220;2023-03-01T23:57:50;1.50;99.90
